^^
Meteo Knjazevac Station Historical Data
Daily Summary for March 6, 2021 Units:  Metric    English   Both
Daily Weekly Monthly Yearly Custom
  High: Low: Average:
Temperature: 16.3 °C 10.6 °C 13.6 °C
Dew Point: 8.6 °C 6.7 °C 7.9 °C
Humidity: 77% 59% 69%
Wind Speed: 12.9km/h 0km/h 4.7km/h
Wind Gust: 19.3km/h - -
Wind- - SW
Pressure: 1016.8 hPa 1012.4 hPa -
Precipitation: 0 mm    
Historical Graphs
 
 
Tabular Data for March 6, 2021
Time Temperature Dew Point Pressure Wind Wind Speed Wind Gust Humidity Rainfall Rate (Hourly) solar Conditions
01:10 16.3 °C 8.3 °C 1012.4 hPa Calm   4.8 km/h 59% 0 mm 0 W/m2
01:20 16 °C 8.2 °C 1012.4 hPa WSW 1.6 km/h 8 km/h 60% 0 mm 0 W/m2
01:30 15.9 °C 8.2 °C 1012.8 hPa WNW 1.6 km/h 8 km/h 60% 0 mm 0 W/m2
01:40 15.8 °C 8.1 °C 1012.8 hPa NW 1.6 km/h 8 km/h 60% 0 mm 0 W/m2
01:50 15.8 °C 8.6 °C 1013.1 hPa NNW 8 km/h 14.5 km/h 62% 0 mm 0 W/m2
02:00 15.8 °C 8.6 °C 1012.8 hPa WSW 3.2 km/h 9.7 km/h 62% 0 mm 0 W/m2
02:10 15.7 °C 8.4 °C 1013.1 hPa WSW 3.2 km/h 6.4 km/h 62% 0 mm 0 W/m2
02:20 15.6 °C 8.3 °C 1013.1 hPa Calm   8 km/h 62% 0 mm 0 W/m2
02:30 15.5 °C 8.5 °C 1013.1 hPa WNW 1.6 km/h 9.7 km/h 63% 0 mm 0 W/m2
02:40 15.4 °C 8.4 °C 1013.1 hPa North 3.2 km/h 3.2 km/h 63% 0 mm 0 W/m2
02:50 15.3 °C 8.3 °C 1013.4 hPa NE 4.8 km/h 8 km/h 63% 0 mm 0 W/m2
03:00 15.2 °C 8.2 °C 1013.4 hPa NE 3.2 km/h 8 km/h 63% 0 mm 0 W/m2
03:10 15 °C 8.2 °C 1013.4 hPa Calm   3.2 km/h 64% 0 mm 0 W/m2
03:20 14.8 °C 8.1 °C 1013.4 hPa Calm   4.8 km/h 64% 0 mm 0 W/m2
03:30 14.4 °C 8.3 °C 1013.4 hPa Calm   4.8 km/h 67% 0 mm 0 W/m2
03:40 14.1 °C 8.3 °C 1013.8 hPa NNE 1.6 km/h 4.8 km/h 68% 0 mm 0 W/m2
03:50 13.9 °C 8.3 °C 1013.8 hPa Calm   4.8 km/h 69% 0 mm 0 W/m2
04:00 13.6 °C 8 °C 1013.8 hPa Calm   3.2 km/h 69% 0 mm 0 W/m2
04:10 13.2 °C 7.8 °C 1013.8 hPa North 1.6 km/h 6.4 km/h 70% 0 mm 0 W/m2
04:20 12.9 °C 8 °C 1014.1 hPa NW 1.6 km/h 4.8 km/h 72% 0 mm 0 W/m2
04:30 12.6 °C 7.9 °C 1014.4 hPa WSW 4.8 km/h 8 km/h 73% 0 mm 0 W/m2
04:40 12.3 °C 7.8 °C 1014.4 hPa WSW 8 km/h 11.3 km/h 74% 0 mm 0 W/m2
04:50 12.5 °C 8.2 °C 1014.8 hPa SW 11.3 km/h 17.7 km/h 75% 0 mm 0 W/m2
05:00 12.5 °C 8.2 °C 1014.8 hPa SW 8 km/h 12.9 km/h 75% 0 mm 0 W/m2
05:10 12.3 °C 8 °C 1015.1 hPa SW 8 km/h 12.9 km/h 75% 0 mm 0 W/m2
05:20 12 °C 7.7 °C 1015.1 hPa SW 8 km/h 14.5 km/h 75% 0 mm 4 W/m2
05:30 11.8 °C 7.5 °C 1015.5 hPa WSW 4.8 km/h 12.9 km/h 75% 0 mm 10 W/m2
05:40 11.6 °C 7.7 °C 1015.8 hPa SW 4.8 km/h 12.9 km/h 77% 0 mm 18 W/m2
05:50 11.4 °C 7.5 °C 1016.1 hPa West 9.7 km/h 14.5 km/h 77% 0 mm 24 W/m2
06:00 11.2 °C 7.3 °C 1016.1 hPa WSW 9.7 km/h 19.3 km/h 77% 0 mm 16 W/m2
06:10 11.2 °C 7.3 °C 1016.1 hPa WSW 8 km/h 16.1 km/h 77% 0 mm 21 W/m2
06:20 11.1 °C 7.2 °C 1016.5 hPa WSW 9.7 km/h 12.9 km/h 77% 0 mm 37 W/m2
06:30 10.9 °C 7 °C 1016.5 hPa WSW 12.9 km/h 19.3 km/h 77% 0 mm 69 W/m2
06:40 10.7 °C 6.8 °C 1016.8 hPa WSW 12.9 km/h 19.3 km/h 77% 0 mm 69 W/m2
06:50 10.6 °C 6.7 °C 1016.8 hPa WSW 8 km/h 19.3 km/h 77% 0 mm 161 W/m2
Knjazevac, Serbia
Compliments of Weather Underground - 2 mb